C83

Byron Airport

Byron, California, USA
METAR KC83 210515Z AUTO 23021KT 10SM OVC027 18/12 A2983 RMK AO2
Observed Flight Rules
Aug-21 @ 05:15 UTC (12 hours ago) Marginal Visual Flight Rules
Wind Visibility Clouds
230° at 21 knots 10 miles
  • Overcast at 2,700' AGL
Temperatures Readings
Current 18°C / 64°F
Dewpoint 12°C / 54°F
Humidity 68%
Altimeter 29.83" Hg
Pressure 1010 hPa
Elevation 24
METAR KC83 210515Z AUTO 23021KT 10SM OVC027 18/12 A2983 RMK AO2
Observed Flight Rules
Aug-21 @ 05:15 UTC
(12 hours ago)
MVFR
Wind Visibility
230° at 21 knots 10 miles
Clouds
  • Overcast at 2,700' AGL
Temperature Dewpoint
18°C / 64°F 12°C / 54°F
Humidity Altimeter Pressure
68% 29.83" Hg 1010 hPa